createdAt,value
2018-07-13T00:00:35.179Z,1015.75
2018-07-13T00:01:35.119Z,1015.73
2018-07-13T00:02:35.090Z,1015.75
2018-07-13T00:03:35.047Z,1015.73
2018-07-13T00:04:35.001Z,1015.76
2018-07-13T00:05:34.959Z,1015.76
2018-07-13T00:06:34.915Z,1015.73
2018-07-13T00:07:34.871Z,1015.72
2018-07-13T00:08:34.820Z,1015.76
2018-07-13T00:09:34.778Z,1015.79
2018-07-13T00:10:34.744Z,1015.77
2018-07-13T00:11:34.696Z,1015.75
2018-07-13T00:12:34.674Z,1015.76
2018-07-13T00:13:34.613Z,1015.79
2018-07-13T00:14:34.593Z,1015.78
2018-07-13T00:15:34.531Z,1015.77
2018-07-13T00:16:34.486Z,1015.78
2018-07-13T00:17:34.442Z,1015.74
2018-07-13T00:18:34.407Z,1015.78
2018-07-13T00:19:34.358Z,1015.73
2018-07-13T00:20:34.322Z,1015.76
2018-07-13T00:21:34.269Z,1015.71
2018-07-13T00:22:34.239Z,1015.75
2018-07-13T00:23:34.185Z,1015.78
2018-07-13T00:24:34.148Z,1015.79
2018-07-13T00:25:34.110Z,1015.82
2018-07-13T00:26:34.081Z,1015.80
2018-07-13T00:27:34.024Z,1015.82
2018-07-13T00:28:33.982Z,1015.83
2018-07-13T00:29:33.936Z,1015.88
2018-07-13T00:30:33.898Z,1015.84
2018-07-13T00:31:33.886Z,1015.86
2018-07-13T00:32:33.812Z,1015.83
2018-07-13T00:33:33.770Z,1015.85
2018-07-13T00:34:33.725Z,1015.82
2018-07-13T00:35:33.690Z,1015.85
2018-07-13T00:36:33.645Z,1015.87
2018-07-13T00:37:33.604Z,1015.83
2018-07-13T00:38:33.559Z,1015.84
2018-07-13T00:39:33.520Z,1015.86
2018-07-13T00:40:33.478Z,1015.85
2018-07-13T00:41:33.433Z,1015.85
2018-07-13T00:42:33.414Z,1015.87
2018-07-13T00:43:33.351Z,1015.87
2018-07-13T00:44:33.310Z,1015.86
2018-07-13T00:45:33.268Z,1015.87
2018-07-13T00:46:33.237Z,1015.86
2018-07-13T00:47:33.180Z,1015.90
2018-07-13T00:48:33.145Z,1015.91
2018-07-13T00:49:33.102Z,1015.90
2018-07-13T00:50:33.054Z,1015.90
2018-07-13T00:51:33.016Z,1015.88
2018-07-13T00:52:32.977Z,1015.91
2018-07-13T00:53:32.933Z,1015.90
2018-07-13T00:54:32.892Z,1015.91
2018-07-13T00:55:32.849Z,1015.88
2018-07-13T00:56:32.816Z,1015.89
2018-07-13T00:57:32.767Z,1015.94
2018-07-13T00:58:32.723Z,1015.88
2018-07-13T00:59:32.684Z,1015.91
2018-07-13T01:00:32.643Z,1015.93
2018-07-13T01:01:32.598Z,1015.95
2018-07-13T01:02:32.560Z,1015.99
2018-07-13T01:03:32.512Z,1015.96
2018-07-13T01:04:32.474Z,1015.95
2018-07-13T01:05:32.431Z,1015.98
2018-07-13T01:06:32.385Z,1016.00
2018-07-13T01:07:32.351Z,1015.99
2018-07-13T01:08:32.316Z,1015.97
2018-07-13T01:09:32.268Z,1015.97
2018-07-13T01:10:32.220Z,1015.98
2018-07-13T01:11:32.178Z,1015.99
2018-07-13T01:12:32.136Z,1015.98
2018-07-13T01:13:32.087Z,1016.02
2018-07-13T01:14:32.046Z,1016.02
2018-07-13T01:15:32.017Z,1015.99
2018-07-13T01:16:31.962Z,1015.96
2018-07-13T01:17:31.930Z,1015.98
2018-07-13T01:18:31.888Z,1016.00
2018-07-13T01:19:31.846Z,1016.03
2018-07-13T01:20:31.801Z,1015.96
2018-07-13T01:21:31.763Z,1015.99
2018-07-13T01:22:31.723Z,1015.98
2018-07-13T01:23:31.687Z,1016.01
2018-07-13T01:24:31.644Z,1015.98
2018-07-13T01:25:31.586Z,1016.01
2018-07-13T01:26:31.566Z,1015.97
2018-07-13T01:27:31.524Z,1015.99
2018-07-13T01:28:31.470Z,1016.02
2018-07-13T01:29:31.428Z,1016.02
2018-07-13T01:30:31.387Z,1016.01
2018-07-13T01:31:31.345Z,1016.02
2018-07-13T01:32:31.294Z,1016.04
2018-07-13T01:33:31.261Z,1016.07
2018-07-13T01:34:31.220Z,1016.04
2018-07-13T01:35:31.175Z,1016.05
2018-07-13T01:36:31.140Z,1016.06
2018-07-13T01:37:31.106Z,1016.05
2018-07-13T01:38:31.060Z,1016.03
2018-07-13T01:39:31.008Z,1016.04
2018-07-13T01:40:30.968Z,1016.06
2018-07-13T01:41:30.931Z,1016.06
2018-07-13T01:42:30.888Z,1016.07
2018-07-13T01:43:30.846Z,1016.07
2018-07-13T01:44:30.798Z,1016.11
2018-07-13T01:45:30.763Z,1016.08
2018-07-13T01:46:30.719Z,1016.11
2018-07-13T01:47:30.676Z,1016.06
2018-07-13T01:48:30.635Z,1016.07
2018-07-13T01:49:30.593Z,1016.10
2018-07-13T01:50:30.555Z,1016.09
2018-07-13T01:51:30.511Z,1016.13
2018-07-13T01:52:30.466Z,1016.09
2018-07-13T01:53:30.427Z,1016.09
2018-07-13T01:54:30.389Z,1016.07
2018-07-13T01:55:30.366Z,1016.12
2018-07-13T01:56:30.304Z,1016.11
2018-07-13T01:57:30.262Z,1016.10
2018-07-13T01:58:30.220Z,1016.11
2018-07-13T01:59:30.175Z,1016.13
2018-07-13T02:00:30.144Z,1016.12
2018-07-13T02:01:30.096Z,1016.13
2018-07-13T02:02:30.056Z,1016.17
2018-07-13T02:03:30.010Z,1016.20
2018-07-13T02:04:29.971Z,1016.18
2018-07-13T02:05:29.929Z,1016.16
2018-07-13T02:06:29.883Z,1016.21
2018-07-13T02:07:29.845Z,1016.17
2018-07-13T02:08:29.807Z,1016.17
2018-07-13T02:09:29.765Z,1016.18
2018-07-13T02:10:29.718Z,1016.18
2018-07-13T02:11:29.673Z,1016.14
2018-07-13T02:12:29.639Z,1016.18
2018-07-13T02:13:29.597Z,1016.15
2018-07-13T02:14:29.554Z,1016.20
2018-07-13T02:15:29.517Z,1016.19
2018-07-13T02:16:29.468Z,1016.14
2018-07-13T02:17:29.430Z,1016.17
2018-07-13T02:18:29.394Z,1016.21
2018-07-13T02:19:29.345Z,1016.16
2018-07-13T02:20:29.305Z,1016.17
2018-07-13T02:21:29.258Z,1016.17
2018-07-13T02:22:29.223Z,1016.16
2018-07-13T02:23:29.188Z,1016.17
2018-07-13T02:24:29.134Z,1016.16
2018-07-13T02:25:29.095Z,1016.19
2018-07-13T02:26:29.056Z,1016.15
2018-07-13T02:27:29.012Z,1016.17
2018-07-13T02:28:28.970Z,1016.19
2018-07-13T02:29:28.936Z,1016.18
2018-07-13T02:30:28.891Z,1016.20
2018-07-13T02:31:28.846Z,1016.18
2018-07-13T02:32:28.807Z,1016.15
2018-07-13T02:33:28.765Z,1016.16
2018-07-13T02:34:28.720Z,1016.14
2018-07-13T02:35:28.682Z,1016.18
2018-07-13T02:36:28.640Z,1016.16
2018-07-13T02:37:28.598Z,1016.18
2018-07-13T02:38:28.553Z,1016.20
2018-07-13T02:39:28.514Z,1016.21
2018-07-13T02:40:28.476Z,1016.21
2018-07-13T02:41:28.434Z,1016.21
2018-07-13T02:42:28.399Z,1016.24
2018-07-13T02:43:28.348Z,1016.25
2018-07-13T02:44:28.306Z,1016.27
2018-07-13T02:45:28.264Z,1016.31
2018-07-13T02:46:28.223Z,1016.30
2018-07-13T02:47:28.181Z,1016.31
2018-07-13T02:48:28.140Z,1016.33
2018-07-13T02:49:28.099Z,1016.34
2018-07-13T02:50:28.054Z,1016.33
2018-07-13T02:51:28.016Z,1016.34
2018-07-13T02:52:27.977Z,1016.36
2018-07-13T02:53:27.933Z,1016.33
2018-07-13T02:54:27.894Z,1016.33
2018-07-13T02:55:27.850Z,1016.34
2018-07-13T02:56:27.809Z,1016.35
2018-07-13T02:57:27.767Z,1016.34
2018-07-13T02:58:27.728Z,1016.34
2018-07-13T02:59:27.681Z,1016.33
2018-07-13T03:00:27.648Z,1016.36
2018-07-13T03:01:27.598Z,1016.36
2018-07-13T03:02:27.555Z,1016.33
2018-07-13T03:03:27.517Z,1016.38
2018-07-13T03:04:27.476Z,1016.38
2018-07-13T03:05:27.443Z,1016.39
2018-07-13T03:06:27.404Z,1016.39
2018-07-13T03:07:27.355Z,1016.38
2018-07-13T03:08:27.320Z,1016.42
2018-07-13T03:09:27.268Z,1016.38
2018-07-13T03:10:27.223Z,1016.41
2018-07-13T03:11:27.185Z,1016.38
2018-07-13T03:12:27.141Z,1016.46
2018-07-13T03:13:27.104Z,1016.44
2018-07-13T03:14:27.059Z,1016.43
2018-07-13T03:15:27.021Z,1016.47
2018-07-13T03:16:26.973Z,1016.49
2018-07-13T03:17:26.937Z,1016.50
2018-07-13T03:18:26.947Z,1016.48
2018-07-13T03:19:26.856Z,1016.50
2018-07-13T03:20:26.817Z,1016.50
2018-07-13T03:21:26.777Z,1016.53
2018-07-13T03:22:26.731Z,1016.54
2018-07-13T03:23:26.688Z,1016.53
2018-07-13T03:24:26.647Z,1016.55
2018-07-13T03:25:26.607Z,1016.57
2018-07-13T03:26:26.561Z,1016.56
2018-07-13T03:27:26.520Z,1016.55
2018-07-13T03:28:26.478Z,1016.58
2018-07-13T03:29:26.434Z,1016.60
2018-07-13T03:30:26.395Z,1016.58
2018-07-13T03:31:26.353Z,1016.61
2018-07-13T03:32:26.314Z,1016.61
2018-07-13T03:33:26.269Z,1016.64
2018-07-13T03:34:26.226Z,1016.63
2018-07-13T03:35:26.186Z,1016.62
2018-07-13T03:36:26.146Z,1016.63
2018-07-13T03:37:26.108Z,1016.64
2018-07-13T03:38:26.170Z,1016.65
2018-07-13T03:39:26.022Z,1016.67
2018-07-13T03:40:25.980Z,1016.68
2018-07-13T03:41:25.948Z,1016.67
2018-07-13T03:42:25.897Z,1016.70
2018-07-13T03:43:25.862Z,1016.68
2018-07-13T03:44:25.813Z,1016.66
2018-07-13T03:45:25.772Z,1016.67
2018-07-13T03:46:25.727Z,1016.64
2018-07-13T03:47:25.689Z,1016.67
2018-07-13T03:48:25.666Z,1016.64
2018-07-13T03:49:25.609Z,1016.64
2018-07-13T03:50:25.569Z,1016.68
2018-07-13T03:51:25.523Z,1016.64
2018-07-13T03:52:25.482Z,1016.64
2018-07-13T03:53:25.443Z,1016.62
2018-07-13T03:54:25.392Z,1016.61
2018-07-13T03:55:25.355Z,1016.63
2018-07-13T03:56:25.313Z,1016.66
2018-07-13T03:57:25.275Z,1016.62
2018-07-13T03:58:25.230Z,1016.61
2018-07-13T03:59:25.188Z,1016.60
2018-07-13T04:00:25.149Z,1016.61
2018-07-13T04:01:25.109Z,1016.66
2018-07-13T04:02:25.065Z,1016.62
2018-07-13T04:03:25.021Z,1016.66
2018-07-13T04:04:25.002Z,1016.71
2018-07-13T04:05:24.945Z,1016.66
2018-07-13T04:06:24.966Z,1016.65
2018-07-13T04:07:24.855Z,1016.64
2018-07-13T04:08:24.813Z,1016.63
2018-07-13T04:09:24.778Z,1016.66
2018-07-13T04:10:24.724Z,1016.65
2018-07-13T04:11:24.691Z,1016.67
2018-07-13T04:12:24.656Z,1016.67
2018-07-13T04:13:24.614Z,1016.68
2018-07-13T04:14:24.567Z,1016.69
2018-07-13T04:15:24.527Z,1016.72
2018-07-13T04:16:24.482Z,1016.72
2018-07-13T04:17:24.443Z,1016.71
2018-07-13T04:18:24.403Z,1016.67
2018-07-13T04:19:24.360Z,1016.68
2018-07-13T04:20:24.319Z,1016.65
2018-07-13T04:21:24.276Z,1016.66
2018-07-13T04:22:24.236Z,1016.68
2018-07-13T04:23:24.194Z,1016.69
2018-07-13T04:24:24.152Z,1016.71
2018-07-13T04:25:24.113Z,1016.70
2018-07-13T04:26:24.069Z,1016.71
2018-07-13T04:27:24.028Z,1016.72
2018-07-13T04:28:23.986Z,1016.69
2018-07-13T04:29:23.943Z,1016.70
2018-07-13T04:30:23.905Z,1016.68
2018-07-13T04:31:23.851Z,1016.66
2018-07-13T04:32:23.819Z,1016.70
2018-07-13T04:33:23.777Z,1016.68
2018-07-13T04:34:23.737Z,1016.69
2018-07-13T04:35:23.699Z,1016.66
2018-07-13T04:36:23.650Z,1016.68
2018-07-13T04:37:23.612Z,1016.68
2018-07-13T04:38:23.570Z,1016.68
2018-07-13T04:39:23.529Z,1016.72
2018-07-13T04:40:23.489Z,1016.67
2018-07-13T04:41:23.446Z,1016.68
2018-07-13T04:42:23.395Z,1016.68
2018-07-13T04:43:23.366Z,1016.71
2018-07-13T04:44:23.321Z,1016.63
2018-07-13T04:45:23.287Z,1016.64
2018-07-13T04:46:23.250Z,1016.65
2018-07-13T04:47:23.196Z,1016.60
2018-07-13T04:48:23.152Z,1016.64
2018-07-13T04:49:23.115Z,1016.61
2018-07-13T04:50:23.073Z,1016.58
2018-07-13T04:51:23.031Z,1016.61
2018-07-13T04:52:22.989Z,1016.60
2018-07-13T04:53:22.946Z,1016.60
2018-07-13T04:54:22.903Z,1016.62
2018-07-13T04:55:22.863Z,1016.62
2018-07-13T04:56:22.820Z,1016.62
2018-07-13T04:57:22.779Z,1016.61
2018-07-13T04:58:22.742Z,1016.61
2018-07-13T04:59:22.700Z,1016.58
2018-07-13T05:00:22.656Z,1016.65
2018-07-13T05:01:22.612Z,1016.65
2018-07-13T05:02:22.583Z,1016.62
2018-07-13T05:03:22.529Z,1016.69
2018-07-13T05:04:22.487Z,1016.68
2018-07-13T05:05:22.452Z,1016.65
2018-07-13T05:06:22.474Z,1016.66
2018-07-13T05:07:22.365Z,1016.65
2018-07-13T05:08:22.320Z,1016.67
2018-07-13T05:09:22.282Z,1016.65
2018-07-13T05:10:22.240Z,1016.66
2018-07-13T05:11:22.195Z,1016.61
2018-07-13T05:12:22.155Z,1016.63
2018-07-13T05:13:22.113Z,1016.67
2018-07-13T05:14:22.072Z,1016.68
2018-07-13T05:15:22.024Z,1016.64
2018-07-13T05:16:21.986Z,1016.67
2018-07-13T05:17:21.953Z,1016.65
2018-07-13T05:18:21.905Z,1016.65
2018-07-13T05:19:21.863Z,1016.67
2018-07-13T05:20:21.825Z,1016.70
2018-07-13T05:21:21.829Z,1016.64
2018-07-13T05:22:21.738Z,1016.68
2018-07-13T05:23:21.697Z,1016.68
2018-07-13T05:24:21.655Z,1016.70
2018-07-13T05:25:21.614Z,1016.69
2018-07-13T05:26:21.576Z,1016.70
2018-07-13T05:27:21.534Z,1016.70
2018-07-13T05:28:21.491Z,1016.71
2018-07-13T05:29:21.450Z,1016.74
2018-07-13T05:30:21.405Z,1016.75
2018-07-13T05:31:21.364Z,1016.75
2018-07-13T05:32:21.325Z,1016.75
2018-07-13T05:33:21.283Z,1016.77
2018-07-13T05:34:21.241Z,1016.81
2018-07-13T05:35:21.203Z,1016.80
2018-07-13T05:36:21.159Z,1016.80
2018-07-13T05:37:21.119Z,1016.81
2018-07-13T05:38:21.093Z,1016.82
2018-07-13T05:39:21.030Z,1016.83
2018-07-13T05:40:20.994Z,1016.79
2018-07-13T05:41:20.950Z,1016.81
2018-07-13T05:42:20.915Z,1016.82
2018-07-13T05:43:20.868Z,1016.82
2018-07-13T05:44:20.828Z,1016.83
2018-07-13T05:45:20.777Z,1016.86
2018-07-13T05:46:20.745Z,1016.83
2018-07-13T05:47:20.702Z,1016.85
2018-07-13T05:48:20.663Z,1016.85
2018-07-13T05:49:20.618Z,1016.83
2018-07-13T05:50:20.577Z,1016.85
2018-07-13T05:51:20.532Z,1016.82
2018-07-13T05:52:20.501Z,1016.85
2018-07-13T05:53:20.453Z,1016.84
2018-07-13T05:54:20.408Z,1016.81
2018-07-13T05:55:20.363Z,1016.82
2018-07-13T05:56:20.327Z,1016.85
2018-07-13T05:57:20.285Z,1016.83
2018-07-13T05:58:20.244Z,1016.84
2018-07-13T05:59:20.205Z,1016.87
2018-07-13T06:00:20.160Z,1016.89
2018-07-13T06:01:20.123Z,1016.85
2018-07-13T06:02:20.078Z,1016.86
2018-07-13T06:03:20.037Z,1016.85
2018-07-13T06:04:19.995Z,1016.90
2018-07-13T06:05:19.952Z,1016.85
2018-07-13T06:06:19.911Z,1016.84
2018-07-13T06:07:19.870Z,1016.86
2018-07-13T06:08:19.825Z,1016.84
2018-07-13T06:09:19.783Z,1016.86
2018-07-13T06:10:19.747Z,1016.87
2018-07-13T06:11:19.700Z,1016.81
2018-07-13T06:12:19.664Z,1016.84
2018-07-13T06:13:19.610Z,1016.83
2018-07-13T06:14:19.580Z,1016.82
2018-07-13T06:15:19.539Z,1016.81
2018-07-13T06:16:19.494Z,1016.84
2018-07-13T06:17:19.456Z,1016.83
2018-07-13T06:18:19.416Z,1016.82
2018-07-13T06:19:19.372Z,1016.83
2018-07-13T06:20:19.342Z,1016.86
2018-07-13T06:21:19.289Z,1016.85
2018-07-13T06:22:19.248Z,1016.86
2018-07-13T06:23:19.206Z,1016.88
2018-07-13T06:24:19.211Z,1016.87
2018-07-13T06:25:19.122Z,1016.87
2018-07-13T06:26:19.081Z,1016.87
2018-07-13T06:27:19.039Z,1016.90
2018-07-13T06:28:18.994Z,1016.92
2018-07-13T06:29:18.954Z,1016.93
2018-07-13T06:30:18.980Z,1016.92
2018-07-13T06:31:18.934Z,1016.91
2018-07-13T06:32:18.831Z,1016.94
2018-07-13T06:33:18.788Z,1016.93
2018-07-13T06:34:18.756Z,1016.94
2018-07-13T06:35:18.702Z,1016.92
2018-07-13T06:36:18.667Z,1016.90
2018-07-13T06:37:18.622Z,1016.95
2018-07-13T06:38:18.582Z,1016.90
2018-07-13T06:39:18.529Z,1016.91
2018-07-13T06:40:18.497Z,1016.91
2018-07-13T06:41:18.446Z,1016.94
2018-07-13T06:42:18.417Z,1016.91
2018-07-13T06:43:18.372Z,1016.92
2018-07-13T06:44:18.331Z,1016.95
2018-07-13T06:45:18.289Z,1016.94
2018-07-13T06:46:18.248Z,1016.97
2018-07-13T06:47:18.206Z,1016.97
2018-07-13T06:48:18.164Z,1016.95
2018-07-13T06:49:18.127Z,1016.98
2018-07-13T06:50:18.135Z,1016.98
2018-07-13T06:51:18.041Z,1016.98
2018-07-13T06:52:17.996Z,1017.00
2018-07-13T06:53:17.961Z,1016.98
2018-07-13T06:54:17.914Z,1017.00
2018-07-13T06:55:17.876Z,1016.98
2018-07-13T06:56:17.830Z,1016.98
2018-07-13T06:57:17.790Z,1016.95
2018-07-13T06:58:17.749Z,1016.97
2018-07-13T06:59:17.707Z,1016.96
2018-07-13T07:00:17.666Z,1016.97
2018-07-13T07:01:17.627Z,1016.97
2018-07-13T07:02:17.583Z,1016.99
2018-07-13T07:03:17.541Z,1016.99
2018-07-13T07:04:17.519Z,1016.99
2018-07-13T07:05:17.458Z,1017.02
2018-07-13T07:06:17.421Z,1017.01
2018-07-13T07:07:17.370Z,1017.06
2018-07-13T07:08:17.334Z,1017.05
2018-07-13T07:09:17.293Z,1017.06
2018-07-13T07:10:17.251Z,1017.05
2018-07-13T07:11:17.209Z,1017.03
2018-07-13T07:12:17.171Z,1017.03
2018-07-13T07:13:17.126Z,1017.06
2018-07-13T07:14:17.085Z,1017.05
2018-07-13T07:15:17.041Z,1017.01
2018-07-13T07:16:17.011Z,1017.06
2018-07-13T07:17:16.963Z,1017.04
2018-07-13T07:18:16.918Z,1017.04
2018-07-13T07:19:16.879Z,1017.08
2018-07-13T07:20:16.838Z,1017.04
2018-07-13T07:21:16.828Z,1017.04
2018-07-13T07:22:16.747Z,1017.02
2018-07-13T07:23:16.714Z,1017.03
2018-07-13T07:24:16.664Z,1017.02
2018-07-13T07:25:16.625Z,1017.00
2018-07-13T07:26:16.588Z,1016.99
2018-07-13T07:27:16.541Z,1017.01
2018-07-13T07:28:16.509Z,1017.00
2018-07-13T07:29:16.457Z,1016.95
2018-07-13T07:30:16.419Z,1016.99
2018-07-13T07:31:16.374Z,1016.99
2018-07-13T07:32:16.332Z,1017.01
2018-07-13T07:33:16.304Z,1017.01
2018-07-13T07:34:16.250Z,1017.03
2018-07-13T07:35:16.211Z,1017.02
2018-07-13T07:36:16.166Z,1017.00
2018-07-13T07:37:16.125Z,1016.98
2018-07-13T07:38:16.096Z,1017.00
2018-07-13T07:39:16.043Z,1016.97
2018-07-13T07:40:16.000Z,1016.99
2018-07-13T07:41:15.971Z,1016.98
2018-07-13T07:42:15.914Z,1016.96
2018-07-13T07:43:15.886Z,1016.95
2018-07-13T07:44:15.831Z,1016.95
2018-07-13T07:45:15.796Z,1016.94
2018-07-13T07:46:15.745Z,1016.95
2018-07-13T07:47:15.707Z,1016.95
2018-07-13T07:48:15.660Z,1016.95
2018-07-13T07:49:15.648Z,1016.96
2018-07-13T07:50:15.600Z,1016.95
2018-07-13T07:51:15.544Z,1016.97
2018-07-13T07:52:15.515Z,1016.96
2018-07-13T07:53:15.462Z,1016.97
2018-07-13T07:54:15.422Z,1016.94
2018-07-13T07:55:15.386Z,1016.97
2018-07-13T07:56:15.338Z,1016.96
2018-07-13T07:57:15.295Z,1016.96
2018-07-13T07:58:15.260Z,1016.94
2018-07-13T07:59:15.206Z,1016.95
2018-07-13T08:00:15.171Z,1016.94
2018-07-13T08:01:15.125Z,1016.93
2018-07-13T08:02:15.084Z,1016.94
2018-07-13T08:03:15.050Z,1016.95
2018-07-13T08:04:14.997Z,1016.96
2018-07-13T08:05:14.957Z,1016.92
2018-07-13T08:06:15.077Z,1016.93
2018-07-13T08:07:15.280Z,1016.96
2018-07-13T08:08:14.833Z,1016.94
2018-07-13T08:09:14.798Z,1016.99
2018-07-13T08:10:14.752Z,1016.97
2018-07-13T08:11:14.714Z,1016.94
2018-07-13T08:12:14.669Z,1016.96
2018-07-13T08:13:14.624Z,1016.97
2018-07-13T08:14:14.875Z,1016.98
2018-07-13T08:15:14.541Z,1016.96
2018-07-13T08:16:14.499Z,1016.94
2018-07-13T08:17:14.468Z,1016.95
2018-07-13T08:18:14.420Z,1016.93
2018-07-13T08:19:14.391Z,1016.91
2018-07-13T08:20:14.336Z,1016.93
2018-07-13T08:21:14.291Z,1016.92
2018-07-13T08:22:14.254Z,1016.95
2018-07-13T08:23:14.204Z,1016.92
2018-07-13T08:24:14.171Z,1016.95
2018-07-13T08:25:14.127Z,1016.94
2018-07-13T08:26:14.084Z,1016.95
2018-07-13T08:27:14.029Z,1016.95
2018-07-13T08:28:13.997Z,1016.94
2018-07-13T08:29:13.959Z,1016.91
2018-07-13T08:30:13.920Z,1016.91
2018-07-13T08:31:13.875Z,1016.90
2018-07-13T08:32:13.833Z,1016.92
2018-07-13T08:33:13.789Z,1016.87
2018-07-13T08:34:13.747Z,1016.94
2018-07-13T08:35:13.706Z,1016.90
2018-07-13T08:36:13.664Z,1016.88
2018-07-13T08:37:13.623Z,1016.88
2018-07-13T08:38:13.585Z,1016.91
2018-07-13T08:39:13.540Z,1016.91
2018-07-13T08:40:13.498Z,1016.92
2018-07-13T08:41:13.457Z,1016.95
2018-07-13T08:42:13.412Z,1016.93
2018-07-13T08:43:13.371Z,1016.90
2018-07-13T08:44:13.330Z,1016.90
2018-07-13T08:45:13.288Z,1016.92
2018-07-13T08:46:13.247Z,1016.88
2018-07-13T08:47:13.202Z,1016.87
2018-07-13T08:48:13.202Z,1016.92
2018-07-13T08:49:13.120Z,1016.90
2018-07-13T08:50:13.121Z,1016.89
2018-07-13T08:51:13.096Z,1016.87
2018-07-13T08:52:12.999Z,1016.91
2018-07-13T08:53:12.955Z,1016.90
2018-07-13T08:54:12.917Z,1016.93
2018-07-13T08:55:12.876Z,1016.90
2018-07-13T08:56:12.886Z,1016.90
2018-07-13T08:57:12.798Z,1016.91
2018-07-13T08:58:12.750Z,1016.90
2018-07-13T08:59:12.712Z,1016.91
2018-07-13T09:00:12.665Z,1016.90
2018-07-13T09:01:12.622Z,1016.93
2018-07-13T09:02:12.580Z,1016.89
2018-07-13T09:03:12.538Z,1016.89
2018-07-13T09:04:12.501Z,1016.91
2018-07-13T09:05:12.458Z,1016.93
2018-07-13T09:06:12.419Z,1016.89
2018-07-13T09:07:12.371Z,1016.91
2018-07-13T09:08:12.332Z,1016.94
2018-07-13T09:09:12.291Z,1016.93
2018-07-13T09:10:12.258Z,1016.88
2018-07-13T09:11:12.205Z,1016.90
2018-07-13T09:12:12.163Z,1016.90
2018-07-13T09:13:12.125Z,1016.95
2018-07-13T09:14:12.083Z,1016.95
2018-07-13T09:15:12.039Z,1016.92
2018-07-13T09:16:12.003Z,1016.94
2018-07-13T09:17:11.951Z,1016.94
2018-07-13T09:18:11.958Z,1016.92
2018-07-13T09:19:11.880Z,1016.93
2018-07-13T09:20:11.827Z,1016.95
2018-07-13T09:21:11.788Z,1016.98
2018-07-13T09:22:11.748Z,1016.95
2018-07-13T09:23:11.706Z,1016.90
2018-07-13T09:24:11.678Z,1016.89
2018-07-13T09:25:11.626Z,1016.89
2018-07-13T09:26:11.581Z,1016.88
2018-07-13T09:27:11.540Z,1016.85
2018-07-13T09:28:11.504Z,1016.89
2018-07-13T09:29:11.457Z,1016.90
2018-07-13T09:30:11.426Z,1016.85
2018-07-13T09:31:11.395Z,1016.85
2018-07-13T09:32:11.333Z,1016.89
2018-07-13T09:33:11.310Z,1016.87
2018-07-13T09:34:11.249Z,1016.89
2018-07-13T09:35:11.211Z,1016.89
2018-07-13T09:36:11.163Z,1016.93
2018-07-13T09:37:11.124Z,1016.88
2018-07-13T09:38:11.087Z,1016.88
2018-07-13T09:39:11.045Z,1016.89
2018-07-13T09:40:10.997Z,1016.89
2018-07-13T09:41:10.959Z,1016.91
2018-07-13T09:42:10.915Z,1016.91
2018-07-13T09:43:10.873Z,1016.89
2018-07-13T09:44:10.832Z,1016.83
2018-07-13T09:45:10.790Z,1016.86
2018-07-13T09:46:10.750Z,1016.86
2018-07-13T09:47:10.713Z,1016.87
2018-07-13T09:48:10.680Z,1016.90
2018-07-13T09:49:10.637Z,1016.90
2018-07-13T09:50:10.581Z,1016.94
2018-07-13T09:51:10.540Z,1016.93
2018-07-13T09:52:10.501Z,1016.92
2018-07-13T09:53:10.460Z,1016.94
2018-07-13T09:54:10.553Z,1016.91
2018-07-13T09:55:10.365Z,1016.90
2018-07-13T09:56:10.331Z,1016.92
2018-07-13T09:57:10.290Z,1016.90
2018-07-13T09:58:10.248Z,1016.94
2018-07-13T09:59:10.206Z,1016.89
2018-07-13T10:00:10.165Z,1016.95
2018-07-13T10:01:10.125Z,1016.89
2018-07-13T10:02:10.083Z,1016.88
2018-07-13T10:03:10.040Z,1016.91
2018-07-13T10:04:10.000Z,1016.91
2018-07-13T10:05:09.959Z,1016.89
2018-07-13T10:06:09.929Z,1016.92
2018-07-13T10:07:09.872Z,1016.93
2018-07-13T10:08:09.833Z,1016.94
2018-07-13T10:09:09.796Z,1016.94
2018-07-13T10:10:09.750Z,1016.92
2018-07-13T10:11:09.708Z,1016.93
2018-07-13T10:12:09.667Z,1016.90
2018-07-13T10:13:09.625Z,1016.86
2018-07-13T10:14:09.584Z,1016.89
2018-07-13T10:15:09.545Z,1016.89
2018-07-13T10:16:09.500Z,1016.88
2018-07-13T10:17:09.458Z,1016.92
2018-07-13T10:18:09.414Z,1016.93
2018-07-13T10:19:09.378Z,1016.92
2018-07-13T10:20:09.335Z,1016.93
2018-07-13T10:21:09.292Z,1016.90
2018-07-13T10:22:09.252Z,1016.86
2018-07-13T10:23:09.204Z,1016.91
2018-07-13T10:24:09.165Z,1016.89
2018-07-13T10:25:09.124Z,1016.89
2018-07-13T10:26:09.086Z,1016.88
2018-07-13T10:27:09.044Z,1016.87
2018-07-13T10:28:08.999Z,1016.86
2018-07-13T10:29:08.980Z,1016.87
2018-07-13T10:30:08.923Z,1016.89
2018-07-13T10:31:08.874Z,1016.90
2018-07-13T10:32:08.836Z,1016.85
2018-07-13T10:33:08.792Z,1016.86
2018-07-13T10:34:08.751Z,1016.83
2018-07-13T10:35:08.710Z,1016.84
2018-07-13T10:36:08.668Z,1016.84
2018-07-13T10:37:08.626Z,1016.85
2018-07-13T10:38:08.585Z,1016.86
2018-07-13T10:39:08.544Z,1016.84
2018-07-13T10:40:08.506Z,1016.81
2018-07-13T10:41:08.458Z,1016.80
2018-07-13T10:42:08.417Z,1016.85
2018-07-13T10:43:08.375Z,1016.84
2018-07-13T10:44:08.338Z,1016.85
2018-07-13T10:45:08.302Z,1016.84
2018-07-13T10:46:08.259Z,1016.80
2018-07-13T10:47:08.211Z,1016.86
2018-07-13T10:48:08.179Z,1016.85
2018-07-13T10:49:08.132Z,1016.85
2018-07-13T10:50:08.087Z,1016.82
2018-07-13T10:51:08.052Z,1016.83
2018-07-13T10:52:08.005Z,1016.86
2018-07-13T10:53:07.969Z,1016.79
2018-07-13T10:54:07.922Z,1016.83
2018-07-13T10:55:07.869Z,1016.84
2018-07-13T10:56:07.833Z,1016.85
2018-07-13T10:57:07.874Z,1016.80
2018-07-13T10:58:07.756Z,1016.77
2018-07-13T10:59:07.711Z,1016.77
2018-07-13T11:00:07.669Z,1016.78
2018-07-13T11:01:07.628Z,1016.80
2018-07-13T11:02:07.587Z,1016.77
2018-07-13T11:03:07.544Z,1016.75
2018-07-13T11:04:07.506Z,1016.75
2018-07-13T11:05:07.467Z,1016.73
2018-07-13T11:06:07.423Z,1016.73
2018-07-13T11:07:07.382Z,1016.73
2018-07-13T11:08:07.381Z,1016.70
2018-07-13T11:09:07.304Z,1016.68
2018-07-13T11:10:07.272Z,1016.68
2018-07-13T11:11:07.231Z,1016.71
2018-07-13T11:12:07.179Z,1016.67
2018-07-13T11:13:07.132Z,1016.64
2018-07-13T11:14:07.168Z,1016.67
2018-07-13T11:15:07.047Z,1016.68
2018-07-13T11:16:07.007Z,1016.62
2018-07-13T11:17:06.964Z,1016.62
2018-07-13T11:18:06.924Z,1016.59
2018-07-13T11:19:06.889Z,1016.62
2018-07-13T11:20:06.834Z,1016.63
2018-07-13T11:21:06.796Z,1016.60
2018-07-13T11:22:06.755Z,1016.60
2018-07-13T11:23:06.713Z,1016.59
2018-07-13T11:24:06.672Z,1016.63
2018-07-13T11:25:06.633Z,1016.58
2018-07-13T11:26:06.593Z,1016.57
2018-07-13T11:27:06.550Z,1016.52
2018-07-13T11:28:06.505Z,1016.52
2018-07-13T11:29:06.464Z,1016.56
2018-07-13T11:30:06.428Z,1016.60
2018-07-13T11:31:06.383Z,1016.53
2018-07-13T11:32:06.340Z,1016.53
2018-07-13T11:33:06.305Z,1016.56
2018-07-13T11:34:06.263Z,1016.51
2018-07-13T11:35:06.218Z,1016.53
2018-07-13T11:36:06.173Z,1016.58
2018-07-13T11:37:06.384Z,1016.53
2018-07-13T11:38:06.091Z,1016.51
2018-07-13T11:39:06.055Z,1016.49
2018-07-13T11:40:06.002Z,1016.47
2018-07-13T11:41:05.963Z,1016.45
2018-07-13T11:42:05.926Z,1016.46
2018-07-13T11:43:05.881Z,1016.45
2018-07-13T11:44:05.852Z,1016.46
2018-07-13T11:45:05.798Z,1016.46
2018-07-13T11:46:05.760Z,1016.42
2018-07-13T11:47:05.718Z,1016.40
2018-07-13T11:48:05.681Z,1016.43
2018-07-13T11:49:05.636Z,1016.43
2018-07-13T11:50:05.592Z,1016.36
2018-07-13T11:51:05.550Z,1016.40
2018-07-13T11:52:05.522Z,1016.35
2018-07-13T11:53:05.469Z,1016.34
2018-07-13T11:54:05.427Z,1016.38
2018-07-13T11:55:05.386Z,1016.37
2018-07-13T11:56:05.343Z,1016.37
2018-07-13T11:57:05.301Z,1016.33
2018-07-13T11:58:05.256Z,1016.32
2018-07-13T11:59:05.221Z,1016.33
2018-07-13T12:00:05.176Z,1016.28
2018-07-13T12:01:05.134Z,1016.24
2018-07-13T12:02:05.099Z,1016.25
2018-07-13T12:03:05.052Z,1016.26
2018-07-13T12:04:05.007Z,1016.23
2018-07-13T12:05:04.974Z,1016.23